sensor_id;sensor_type;location;lat;lon;timestamp;P1;durP1;ratioP1;P2;durP2;ratioP2
69203;SDS011;56317;27.658;85.326;2023-03-20T00:02:16;76.22;;;30.73;;
69203;SDS011;56317;27.658;85.326;2023-03-20T00:04:45;58.95;;;30.15;;
69203;SDS011;56317;27.658;85.326;2023-03-20T00:07:12;68.32;;;29.58;;
69203;SDS011;56317;27.658;85.326;2023-03-20T00:09:39;63.08;;;30.05;;
69203;SDS011;56317;27.658;85.326;2023-03-20T00:12:09;53.58;;;28.17;;
69203;SDS011;56317;27.658;85.326;2023-03-20T00:14:40;54.25;;;28.52;;
69203;SDS011;56317;27.658;85.326;2023-03-20T00:17:11;71.85;;;42.08;;
69203;SDS011;56317;27.658;85.326;2023-03-20T00:19:44;83.72;;;42.10;;
69203;SDS011;56317;27.658;85.326;2023-03-20T00:22:11;93.05;;;42.15;;
69203;SDS011;56317;27.658;85.326;2023-03-20T00:24:38;86.70;;;37.03;;
69203;SDS011;56317;27.658;85.326;2023-03-20T00:27:08;77.53;;;36.03;;
69203;SDS011;56317;27.658;85.326;2023-03-20T00:29:38;88.25;;;36.30;;
69203;SDS011;56317;27.658;85.326;2023-03-20T00:32:08;96.07;;;46.25;;
69203;SDS011;56317;27.658;85.326;2023-03-20T00:34:40;109.35;;;45.45;;
69203;SDS011;56317;27.658;85.326;2023-03-20T00:37:07;95.00;;;49.42;;
69203;SDS011;56317;27.658;85.326;2023-03-20T00:39:39;103.25;;;51.60;;
69203;SDS011;56317;27.658;85.326;2023-03-20T00:42:06;124.30;;;54.03;;
69203;SDS011;56317;27.658;85.326;2023-03-20T00:44:51;103.22;;;52.75;;
69203;SDS011;56317;27.658;85.326;2023-03-20T00:47:23;120.20;;;55.83;;
69203;SDS011;56317;27.658;85.326;2023-03-20T00:49:52;106.75;;;55.72;;
69203;SDS011;56317;27.658;85.326;2023-03-20T00:52:20;106.05;;;54.55;;
69203;SDS011;56317;27.658;85.326;2023-03-20T00:54:48;111.30;;;53.60;;
69203;SDS011;56317;27.658;85.326;2023-03-20T00:57:25;107.85;;;53.88;;
69203;SDS011;56317;27.658;85.326;2023-03-20T01:02:33;104.43;;;53.40;;
69203;SDS011;56317;27.658;85.326;2023-03-20T01:05:00;96.25;;;50.10;;
69203;SDS011;56317;27.658;85.326;2023-03-20T01:07:30;112.75;;;50.13;;
69203;SDS011;56317;27.658;85.326;2023-03-20T01:09:57;96.03;;;48.53;;
69203;SDS011;56317;27.658;85.326;2023-03-20T01:12:27;109.88;;;50.50;;
69203;SDS011;56317;27.658;85.326;2023-03-20T01:14:54;90.55;;;47.45;;
69203;SDS011;56317;27.658;85.326;2023-03-20T01:17:23;86.15;;;45.78;;
69203;SDS011;56317;27.658;85.326;2023-03-20T01:19:52;89.07;;;47.03;;
69203;SDS011;56317;27.658;85.326;2023-03-20T01:22:19;82.43;;;46.33;;
69203;SDS011;56317;27.658;85.326;2023-03-20T01:24:46;96.55;;;48.97;;
69203;SDS011;56317;27.658;85.326;2023-03-20T01:27:17;91.07;;;46.65;;
69203;SDS011;56317;27.658;85.326;2023-03-20T01:29:45;86.85;;;46.75;;
69203;SDS011;56317;27.658;85.326;2023-03-20T01:32:17;76.25;;;41.80;;
69203;SDS011;56317;27.658;85.326;2023-03-20T01:34:45;82.47;;;41.33;;
69203;SDS011;56317;27.658;85.326;2023-03-20T01:37:33;78.78;;;42.15;;
69203;SDS011;56317;27.658;85.326;2023-03-20T01:39:59;75.40;;;41.00;;
69203;SDS011;56317;27.658;85.326;2023-03-20T01:42:27;78.00;;;41.50;;
69203;SDS011;56317;27.658;85.326;2023-03-20T01:44:54;79.05;;;40.65;;
69203;SDS011;56317;27.658;85.326;2023-03-20T01:47:22;82.05;;;41.60;;
69203;SDS011;56317;27.658;85.326;2023-03-20T01:55:39;72.50;;;40.35;;
69203;SDS011;56317;27.658;85.326;2023-03-20T01:58:11;66.45;;;40.47;;
69203;SDS011;56317;27.658;85.326;2023-03-20T02:00:42;101.65;;;55.10;;
69203;SDS011;56317;27.658;85.326;2023-03-20T02:03:13;103.05;;;55.95;;
69203;SDS011;56317;27.658;85.326;2023-03-20T02:05:44;107.40;;;58.33;;
69203;SDS011;56317;27.658;85.326;2023-03-20T02:08:21;93.55;;;54.38;;
69203;SDS011;56317;27.658;85.326;2023-03-20T02:10:54;79.45;;;42.22;;
69203;SDS011;56317;27.658;85.326;2023-03-20T02:13:23;93.10;;;55.90;;
69203;SDS011;56317;27.658;85.326;2023-03-20T02:15:55;99.90;;;55.15;;
69203;SDS011;56317;27.658;85.326;2023-03-20T02:23:45;108.47;;;61.65;;
69203;SDS011;56317;27.658;85.326;2023-03-20T02:26:28;110.32;;;62.80;;
69203;SDS011;56317;27.658;85.326;2023-03-20T02:29:14;104.13;;;59.78;;
69203;SDS011;56317;27.658;85.326;2023-03-20T02:54:53;103.78;;;65.15;;
69203;SDS011;56317;27.658;85.326;2023-03-20T03:00:21;91.18;;;58.17;;
69203;SDS011;56317;27.658;85.326;2023-03-20T03:03:03;88.88;;;57.45;;
69203;SDS011;56317;27.658;85.326;2023-03-20T03:05:37;92.50;;;57.08;;
69203;SDS011;56317;27.658;85.326;2023-03-20T03:08:12;85.45;;;54.67;;
69203;SDS011;56317;27.658;85.326;2023-03-20T03:10:56;85.72;;;58.47;;
69203;SDS011;56317;27.658;85.326;2023-03-20T03:13:35;93.47;;;60.55;;
69203;SDS011;56317;27.658;85.326;2023-03-20T03:16:19;103.88;;;65.57;;
69203;SDS011;56317;27.658;85.326;2023-03-20T03:18:59;88.95;;;61.58;;
69203;SDS011;56317;27.658;85.326;2023-03-20T03:21:34;95.15;;;60.92;;
69203;SDS011;56317;27.658;85.326;2023-03-20T03:24:04;94.53;;;62.38;;
69203;SDS011;56317;27.658;85.326;2023-03-20T03:26:41;78.90;;;52.58;;
69203;SDS011;56317;27.658;85.326;2023-03-20T03:29:13;76.35;;;51.05;;
69203;SDS011;56317;27.658;85.326;2023-03-20T03:31:42;74.93;;;48.25;;
69203;SDS011;56317;27.658;85.326;2023-03-20T03:36:47;57.08;;;40.33;;
69203;SDS011;56317;27.658;85.326;2023-03-20T03:42:31;50.85;;;35.97;;
69203;SDS011;56317;27.658;85.326;2023-03-20T03:45:14;59.35;;;38.75;;
69203;SDS011;56317;27.658;85.326;2023-03-20T03:47:55;48.60;;;33.53;;
69203;SDS011;56317;27.658;85.326;2023-03-20T03:50:51;45.15;;;31.02;;
69203;SDS011;56317;27.658;85.326;2023-03-20T03:53:22;41.97;;;28.20;;
69203;SDS011;56317;27.658;85.326;2023-03-20T03:56:00;39.70;;;27.00;;
69203;SDS011;56317;27.658;85.326;2023-03-20T03:58:38;48.72;;;34.20;;
69203;SDS011;56317;27.658;85.326;2023-03-20T04:01:12;61.08;;;40.63;;
69203;SDS011;56317;27.658;85.326;2023-03-20T04:03:42;61.75;;;39.97;;
69203;SDS011;56317;27.658;85.326;2023-03-20T04:06:15;59.92;;;38.38;;
69203;SDS011;56317;27.658;85.326;2023-03-20T04:08:43;50.22;;;35.28;;
69203;SDS011;56317;27.658;85.326;2023-03-20T04:11:14;55.03;;;37.38;;
69203;SDS011;56317;27.658;85.326;2023-03-20T04:13:43;56.95;;;38.85;;
69203;SDS011;56317;27.658;85.326;2023-03-20T04:16:13;59.95;;;39.67;;
69203;SDS011;56317;27.658;85.326;2023-03-20T04:18:41;54.75;;;36.38;;
69203;SDS011;56317;27.658;85.326;2023-03-20T04:21:09;45.85;;;32.40;;
69203;SDS011;56317;27.658;85.326;2023-03-20T04:23:37;41.60;;;28.60;;
69203;SDS011;56317;27.658;85.326;2023-03-20T04:26:05;41.88;;;29.27;;
69203;SDS011;56317;27.658;85.326;2023-03-20T04:28:32;45.08;;;31.52;;
69203;SDS011;56317;27.658;85.326;2023-03-20T04:31:00;49.88;;;34.35;;
69203;SDS011;56317;27.658;85.326;2023-03-20T04:33:27;49.38;;;34.20;;
69203;SDS011;56317;27.658;85.326;2023-03-20T04:35:55;51.95;;;33.97;;
69203;SDS011;56317;27.658;85.326;2023-03-20T04:38:23;45.55;;;31.58;;
69203;SDS011;56317;27.658;85.326;2023-03-20T04:40:53;47.35;;;31.80;;
69203;SDS011;56317;27.658;85.326;2023-03-20T04:43:20;44.58;;;32.22;;
69203;SDS011;56317;27.658;85.326;2023-03-20T04:45:48;47.72;;;31.45;;
69203;SDS011;56317;27.658;85.326;2023-03-20T04:48:15;46.63;;;30.75;;
69203;SDS011;56317;27.658;85.326;2023-03-20T04:50:42;42.88;;;27.00;;
69203;SDS011;56317;27.658;85.326;2023-03-20T04:53:13;36.92;;;25.27;;
69203;SDS011;56317;27.658;85.326;2023-03-20T04:55:41;35.05;;;22.88;;
69203;SDS011;56317;27.658;85.326;2023-03-20T04:58:12;40.90;;;25.40;;
69203;SDS011;56317;27.658;85.326;2023-03-20T05:00:39;35.63;;;23.13;;
69203;SDS011;56317;27.658;85.326;2023-03-20T05:03:07;33.35;;;20.92;;
69203;SDS011;56317;27.658;85.326;2023-03-20T05:05:34;29.92;;;21.13;;
69203;SDS011;56317;27.658;85.326;2023-03-20T05:08:03;34.05;;;23.25;;
69203;SDS011;56317;27.658;85.326;2023-03-20T05:10:31;31.40;;;21.63;;
69203;SDS011;56317;27.658;85.326;2023-03-20T05:12:58;32.90;;;21.83;;
69203;SDS011;56317;27.658;85.326;2023-03-20T05:15:25;33.67;;;23.30;;
69203;SDS011;56317;27.658;85.326;2023-03-20T05:17:53;30.30;;;21.60;;
69203;SDS011;56317;27.658;85.326;2023-03-20T05:20:20;34.22;;;23.38;;
69203;SDS011;56317;27.658;85.326;2023-03-20T05:22:48;34.33;;;23.80;;
69203;SDS011;56317;27.658;85.326;2023-03-20T05:25:16;35.75;;;25.38;;
69203;SDS011;56317;27.658;85.326;2023-03-20T05:27:44;36.55;;;24.02;;
69203;SDS011;56317;27.658;85.326;2023-03-20T05:30:12;37.40;;;25.48;;
69203;SDS011;56317;27.658;85.326;2023-03-20T05:32:40;39.13;;;25.45;;
69203;SDS011;56317;27.658;85.326;2023-03-20T05:35:08;44.67;;;27.38;;
69203;SDS011;56317;27.658;85.326;2023-03-20T05:37:37;48.72;;;28.35;;
69203;SDS011;56317;27.658;85.326;2023-03-20T05:40:04;39.47;;;25.77;;
69203;SDS011;56317;27.658;85.326;2023-03-20T05:42:32;42.40;;;27.50;;
69203;SDS011;56317;27.658;85.326;2023-03-20T05:45:00;53.15;;;29.33;;
69203;SDS011;56317;27.658;85.326;2023-03-20T05:47:27;47.92;;;30.60;;
69203;SDS011;56317;27.658;85.326;2023-03-20T05:49:55;50.58;;;29.17;;
69203;SDS011;56317;27.658;85.326;2023-03-20T05:52:22;43.80;;;29.20;;
69203;SDS011;56317;27.658;85.326;2023-03-20T05:54:50;42.78;;;29.45;;
69203;SDS011;56317;27.658;85.326;2023-03-20T05:57:17;49.83;;;29.35;;
69203;SDS011;56317;27.658;85.326;2023-03-20T05:59:48;45.10;;;29.55;;
69203;SDS011;56317;27.658;85.326;2023-03-20T06:02:15;48.33;;;31.13;;
69203;SDS011;56317;27.658;85.326;2023-03-20T06:04:42;48.30;;;29.17;;
69203;SDS011;56317;27.658;85.326;2023-03-20T06:07:10;50.17;;;29.95;;
69203;SDS011;56317;27.658;85.326;2023-03-20T06:09:37;46.42;;;27.92;;
69203;SDS011;56317;27.658;85.326;2023-03-20T06:12:05;46.63;;;29.45;;
69203;SDS011;56317;27.658;85.326;2023-03-20T06:14:32;45.10;;;29.40;;
69203;SDS011;56317;27.658;85.326;2023-03-20T06:16:59;56.83;;;33.60;;
69203;SDS011;56317;27.658;85.326;2023-03-20T06:19:27;54.28;;;32.53;;
69203;SDS011;56317;27.658;85.326;2023-03-20T06:21:54;53.20;;;33.10;;
69203;SDS011;56317;27.658;85.326;2023-03-20T06:24:24;55.63;;;34.47;;
69203;SDS011;56317;27.658;85.326;2023-03-20T06:26:52;56.10;;;34.35;;
69203;SDS011;56317;27.658;85.326;2023-03-20T06:29:19;52.55;;;33.00;;
69203;SDS011;56317;27.658;85.326;2023-03-20T06:31:46;52.58;;;32.63;;
69203;SDS011;56317;27.658;85.326;2023-03-20T06:34:13;56.47;;;32.97;;
69203;SDS011;56317;27.658;85.326;2023-03-20T06:36:41;64.25;;;35.10;;
69203;SDS011;56317;27.658;85.326;2023-03-20T06:39:08;47.00;;;31.20;;
69203;SDS011;56317;27.658;85.326;2023-03-20T06:41:36;52.60;;;31.63;;
69203;SDS011;56317;27.658;85.326;2023-03-20T06:44:03;56.13;;;32.95;;
69203;SDS011;56317;27.658;85.326;2023-03-20T06:46:31;45.90;;;29.80;;
69203;SDS011;56317;27.658;85.326;2023-03-20T06:48:58;53.63;;;30.33;;
69203;SDS011;56317;27.658;85.326;2023-03-20T06:51:25;51.90;;;32.88;;
69203;SDS011;56317;27.658;85.326;2023-03-20T06:53:53;45.20;;;30.67;;
69203;SDS011;56317;27.658;85.326;2023-03-20T06:56:20;50.22;;;32.17;;
69203;SDS011;56317;27.658;85.326;2023-03-20T06:58:47;54.50;;;35.35;;
69203;SDS011;56317;27.658;85.326;2023-03-20T07:01:16;49.13;;;31.42;;
69203;SDS011;56317;27.658;85.326;2023-03-20T07:03:45;53.47;;;32.55;;
69203;SDS011;56317;27.658;85.326;2023-03-20T07:06:12;57.92;;;33.03;;
69203;SDS011;56317;27.658;85.326;2023-03-20T07:08:40;52.25;;;31.92;;
69203;SDS011;56317;27.658;85.326;2023-03-20T07:11:07;46.65;;;28.70;;
69203;SDS011;56317;27.658;85.326;2023-03-20T07:13:34;54.53;;;30.00;;
69203;SDS011;56317;27.658;85.326;2023-03-20T07:16:02;49.00;;;28.30;;
69203;SDS011;56317;27.658;85.326;2023-03-20T07:18:30;45.50;;;27.10;;
69203;SDS011;56317;27.658;85.326;2023-03-20T07:21:01;47.45;;;26.15;;
69203;SDS011;56317;27.658;85.326;2023-03-20T07:23:31;41.92;;;25.30;;
69203;SDS011;56317;27.658;85.326;2023-03-20T07:25:59;41.72;;;25.30;;
69203;SDS011;56317;27.658;85.326;2023-03-20T07:28:26;40.45;;;23.73;;
69203;SDS011;56317;27.658;85.326;2023-03-20T07:30:54;38.13;;;22.40;;
69203;SDS011;56317;27.658;85.326;2023-03-20T07:33:21;39.20;;;22.95;;
69203;SDS011;56317;27.658;85.326;2023-03-20T07:35:52;37.38;;;22.98;;
69203;SDS011;56317;27.658;85.326;2023-03-20T07:38:20;39.58;;;22.42;;
69203;SDS011;56317;27.658;85.326;2023-03-20T07:40:48;39.88;;;22.05;;
69203;SDS011;56317;27.658;85.326;2023-03-20T07:43:15;39.22;;;22.33;;
69203;SDS011;56317;27.658;85.326;2023-03-20T07:45:43;30.35;;;21.02;;
69203;SDS011;56317;27.658;85.326;2023-03-20T07:48:10;40.35;;;24.55;;
69203;SDS011;56317;27.658;85.326;2023-03-20T07:50:37;36.67;;;21.83;;
69203;SDS011;56317;27.658;85.326;2023-03-20T07:53:05;29.75;;;19.02;;
69203;SDS011;56317;27.658;85.326;2023-03-20T07:55:32;37.65;;;19.73;;
69203;SDS011;56317;27.658;85.326;2023-03-20T07:57:59;28.42;;;17.95;;
69203;SDS011;56317;27.658;85.326;2023-03-20T08:00:26;35.95;;;19.73;;
69203;SDS011;56317;27.658;85.326;2023-03-20T08:02:54;34.10;;;18.48;;
69203;SDS011;56317;27.658;85.326;2023-03-20T08:05:22;27.65;;;18.17;;
69203;SDS011;56317;27.658;85.326;2023-03-20T08:07:49;29.02;;;16.33;;
69203;SDS011;56317;27.658;85.326;2023-03-20T08:10:16;32.03;;;17.73;;
69203;SDS011;56317;27.658;85.326;2023-03-20T08:12:44;34.53;;;19.20;;
69203;SDS011;56317;27.658;85.326;2023-03-20T08:15:11;31.15;;;18.80;;
69203;SDS011;56317;27.658;85.326;2023-03-20T08:17:45;28.77;;;19.38;;
69203;SDS011;56317;27.658;85.326;2023-03-20T08:20:13;36.88;;;19.85;;
69203;SDS011;56317;27.658;85.326;2023-03-20T08:22:43;29.17;;;18.63;;
69203;SDS011;56317;27.658;85.326;2023-03-20T08:25:10;35.35;;;19.42;;
69203;SDS011;56317;27.658;85.326;2023-03-20T08:27:37;32.38;;;20.35;;
69203;SDS011;56317;27.658;85.326;2023-03-20T08:30:06;33.10;;;20.73;;
69203;SDS011;56317;27.658;85.326;2023-03-20T08:32:34;30.73;;;18.50;;
69203;SDS011;56317;27.658;85.326;2023-03-20T08:35:03;38.60;;;18.77;;
69203;SDS011;56317;27.658;85.326;2023-03-20T08:37:31;33.25;;;19.45;;
69203;SDS011;56317;27.658;85.326;2023-03-20T08:39:58;34.08;;;19.23;;
69203;SDS011;56317;27.658;85.326;2023-03-20T08:42:27;43.08;;;27.55;;
69203;SDS011;56317;27.658;85.326;2023-03-20T08:44:54;40.17;;;21.00;;
69203;SDS011;56317;27.658;85.326;2023-03-20T08:47:21;28.88;;;18.75;;
69203;SDS011;56317;27.658;85.326;2023-03-20T08:49:48;42.00;;;19.83;;
69203;SDS011;56317;27.658;85.326;2023-03-20T08:52:17;29.05;;;18.40;;
69203;SDS011;56317;27.658;85.326;2023-03-20T08:54:44;36.05;;;20.33;;
69203;SDS011;56317;27.658;85.326;2023-03-20T08:57:11;40.05;;;21.80;;
69203;SDS011;56317;27.658;85.326;2023-03-20T08:59:39;38.92;;;20.60;;
69203;SDS011;56317;27.658;85.326;2023-03-20T09:02:08;41.10;;;21.10;;
69203;SDS011;56317;27.658;85.326;2023-03-20T09:04:38;39.10;;;20.05;;
69203;SDS011;56317;27.658;85.326;2023-03-20T09:07:05;35.40;;;19.13;;
69203;SDS011;56317;27.658;85.326;2023-03-20T09:09:36;39.10;;;19.17;;
69203;SDS011;56317;27.658;85.326;2023-03-20T09:12:03;35.22;;;18.35;;
69203;SDS011;56317;27.658;85.326;2023-03-20T09:14:31;30.48;;;18.27;;
69203;SDS011;56317;27.658;85.326;2023-03-20T09:16:59;35.45;;;18.52;;
69203;SDS011;56317;27.658;85.326;2023-03-20T09:19:26;35.28;;;18.90;;
69203;SDS011;56317;27.658;85.326;2023-03-20T09:21:53;30.15;;;17.83;;
69203;SDS011;56317;27.658;85.326;2023-03-20T09:24:22;43.25;;;19.08;;
69203;SDS011;56317;27.658;85.326;2023-03-20T09:26:49;32.50;;;18.48;;
69203;SDS011;56317;27.658;85.326;2023-03-20T09:29:19;49.13;;;19.23;;
69203;SDS011;56317;27.658;85.326;2023-03-20T09:31:46;33.45;;;18.98;;
69203;SDS011;56317;27.658;85.326;2023-03-20T09:34:13;37.60;;;18.90;;
69203;SDS011;56317;27.658;85.326;2023-03-20T09:36:41;33.72;;;20.38;;
69203;SDS011;56317;27.658;85.326;2023-03-20T09:39:08;38.90;;;23.08;;
69203;SDS011;56317;27.658;85.326;2023-03-20T09:41:36;44.30;;;24.65;;
69203;SDS011;56317;27.658;85.326;2023-03-20T09:54:44;55.15;;;33.97;;
69203;SDS011;56317;27.658;85.326;2023-03-20T09:57:18;46.20;;;27.58;;
69203;SDS011;56317;27.658;85.326;2023-03-20T09:59:54;37.63;;;22.95;;
69203;SDS011;56317;27.658;85.326;2023-03-20T10:04:56;77.18;;;48.78;;
69203;SDS011;56317;27.658;85.326;2023-03-20T10:07:24;51.08;;;32.17;;
69203;SDS011;56317;27.658;85.326;2023-03-20T10:09:51;92.93;;;54.80;;
69203;SDS011;56317;27.658;85.326;2023-03-20T10:17:58;65.82;;;33.63;;
69203;SDS011;56317;27.658;85.326;2023-03-20T10:20:35;52.40;;;27.85;;
69203;SDS011;56317;27.658;85.326;2023-03-20T10:23:19;85.28;;;50.10;;
69203;SDS011;56317;27.658;85.326;2023-03-20T10:26:13;62.90;;;34.20;;
69203;SDS011;56317;27.658;85.326;2023-03-20T10:31:28;42.70;;;24.67;;
69203;SDS011;56317;27.658;85.326;2023-03-20T10:36:42;47.13;;;28.33;;
69203;SDS011;56317;27.658;85.326;2023-03-20T10:39:18;42.00;;;24.27;;
69203;SDS011;56317;27.658;85.326;2023-03-20T10:42:01;45.53;;;27.42;;
69203;SDS011;56317;27.658;85.326;2023-03-20T10:44:38;40.63;;;22.42;;
69203;SDS011;56317;27.658;85.326;2023-03-20T10:47:11;29.77;;;20.15;;
69203;SDS011;56317;27.658;85.326;2023-03-20T10:49:43;33.28;;;19.40;;
69203;SDS011;56317;27.658;85.326;2023-03-20T10:52:28;64.13;;;42.53;;
69203;SDS011;56317;27.658;85.326;2023-03-20T10:55:20;54.08;;;30.80;;
69203;SDS011;56317;27.658;85.326;2023-03-20T10:57:50;45.78;;;29.05;;
69203;SDS011;56317;27.658;85.326;2023-03-20T11:03:06;55.28;;;32.38;;
69203;SDS011;56317;27.658;85.326;2023-03-20T11:05:41;54.95;;;29.60;;
69203;SDS011;56317;27.658;85.326;2023-03-20T11:08:13;48.42;;;28.35;;
69203;SDS011;56317;27.658;85.326;2023-03-20T11:15:51;60.25;;;35.42;;
69203;SDS011;56317;27.658;85.326;2023-03-20T11:18:19;61.30;;;33.78;;
69203;SDS011;56317;27.658;85.326;2023-03-20T11:23:31;71.07;;;41.28;;
69203;SDS011;56317;27.658;85.326;2023-03-20T11:26:00;69.22;;;42.20;;
69203;SDS011;56317;27.658;85.326;2023-03-20T11:33:42;81.63;;;47.00;;
69203;SDS011;56317;27.658;85.326;2023-03-20T11:36:22;75.22;;;41.58;;
69203;SDS011;56317;27.658;85.326;2023-03-20T11:38:51;52.08;;;31.60;;
69203;SDS011;56317;27.658;85.326;2023-03-20T11:41:25;52.75;;;31.67;;
69203;SDS011;56317;27.658;85.326;2023-03-20T11:43:53;48.50;;;29.50;;
69203;SDS011;56317;27.658;85.326;2023-03-20T11:46:21;49.47;;;32.10;;
69203;SDS011;56317;27.658;85.326;2023-03-20T11:51:55;40.92;;;27.20;;
69203;SDS011;56317;27.658;85.326;2023-03-20T11:54:36;53.20;;;31.20;;
69203;SDS011;56317;27.658;85.326;2023-03-20T12:00:17;44.53;;;29.45;;
69203;SDS011;56317;27.658;85.326;2023-03-20T12:02:47;58.75;;;35.65;;
69203;SDS011;56317;27.658;85.326;2023-03-20T12:05:33;39.83;;;26.95;;
69203;SDS011;56317;27.658;85.326;2023-03-20T12:10:40;39.03;;;23.48;;
69203;SDS011;56317;27.658;85.326;2023-03-20T12:13:13;39.47;;;25.07;;
69203;SDS011;56317;27.658;85.326;2023-03-20T12:15:53;43.55;;;24.55;;
69203;SDS011;56317;27.658;85.326;2023-03-20T12:21:09;32.35;;;20.15;;
69203;SDS011;56317;27.658;85.326;2023-03-20T12:24:14;30.55;;;17.48;;
69203;SDS011;56317;27.658;85.326;2023-03-20T12:30:00;27.13;;;14.82;;
69203;SDS011;56317;27.658;85.326;2023-03-20T12:32:39;25.85;;;15.93;;
69203;SDS011;56317;27.658;85.326;2023-03-20T12:37:47;28.85;;;18.48;;
69203;SDS011;56317;27.658;85.326;2023-03-20T12:40:16;33.08;;;21.25;;
69203;SDS011;56317;27.658;85.326;2023-03-20T12:45:22;28.65;;;18.20;;
69203;SDS011;56317;27.658;85.326;2023-03-20T12:58:48;22.98;;;13.90;;
69203;SDS011;56317;27.658;85.326;2023-03-20T13:01:23;22.98;;;13.68;;
69203;SDS011;56317;27.658;85.326;2023-03-20T13:07:12;21.85;;;12.95;;
69203;SDS011;56317;27.658;85.326;2023-03-20T13:14:42;22.20;;;14.20;;
69203;SDS011;56317;27.658;85.326;2023-03-20T13:17:29;20.90;;;12.98;;
69203;SDS011;56317;27.658;85.326;2023-03-20T13:23:08;25.10;;;14.82;;
69203;SDS011;56317;27.658;85.326;2023-03-20T13:25:52;24.02;;;14.95;;
69203;SDS011;56317;27.658;85.326;2023-03-20T13:36:40;23.83;;;14.82;;
69203;SDS011;56317;27.658;85.326;2023-03-20T13:39:23;29.45;;;15.95;;
69203;SDS011;56317;27.658;85.326;2023-03-20T13:42:09;23.48;;;15.63;;
69203;SDS011;56317;27.658;85.326;2023-03-20T13:44:40;26.50;;;16.73;;
69203;SDS011;56317;27.658;85.326;2023-03-20T13:47:11;25.58;;;16.27;;
69203;SDS011;56317;27.658;85.326;2023-03-20T13:49:45;26.83;;;15.45;;
69203;SDS011;56317;27.658;85.326;2023-03-20T13:52:28;26.73;;;17.00;;
69203;SDS011;56317;27.658;85.326;2023-03-20T13:55:28;25.00;;;16.80;;
69203;SDS011;56317;27.658;85.326;2023-03-20T13:58:12;34.42;;;18.67;;
69203;SDS011;56317;27.658;85.326;2023-03-20T14:01:00;33.10;;;21.42;;
69203;SDS011;56317;27.658;85.326;2023-03-20T14:03:39;41.35;;;23.60;;
69203;SDS011;56317;27.658;85.326;2023-03-20T14:06:18;43.35;;;24.33;;
69203;SDS011;56317;27.658;85.326;2023-03-20T14:09:32;45.97;;;26.25;;
69203;SDS011;56317;27.658;85.326;2023-03-20T14:12:02;44.22;;;23.92;;
69203;SDS011;56317;27.658;85.326;2023-03-20T14:14:44;43.75;;;24.00;;
69203;SDS011;56317;27.658;85.326;2023-03-20T14:19:47;39.13;;;22.00;;
69203;SDS011;56317;27.658;85.326;2023-03-20T14:22:20;37.38;;;21.85;;
69203;SDS011;56317;27.658;85.326;2023-03-20T14:25:13;37.00;;;20.38;;
69203;SDS011;56317;27.658;85.326;2023-03-20T14:41:34;66.20;;;34.58;;
69203;SDS011;56317;27.658;85.326;2023-03-20T14:47:07;62.97;;;31.50;;
69203;SDS011;56317;27.658;85.326;2023-03-20T14:52:43;65.25;;;34.63;;
69203;SDS011;56317;27.658;85.326;2023-03-20T14:55:34;76.75;;;40.67;;
69203;SDS011;56317;27.658;85.326;2023-03-20T15:06:59;85.93;;;41.83;;
69203;SDS011;56317;27.658;85.326;2023-03-20T15:09:28;91.00;;;46.90;;
69203;SDS011;56317;27.658;85.326;2023-03-20T15:11:57;89.47;;;45.53;;
69203;SDS011;56317;27.658;85.326;2023-03-20T15:14:50;100.20;;;48.13;;
69203;SDS011;56317;27.658;85.326;2023-03-20T15:17:17;95.65;;;46.45;;
69203;SDS011;56317;27.658;85.326;2023-03-20T15:19:47;86.68;;;43.85;;
69203;SDS011;56317;27.658;85.326;2023-03-20T15:22:16;70.05;;;34.85;;
69203;SDS011;56317;27.658;85.326;2023-03-20T15:24:54;63.78;;;34.63;;
69203;SDS011;56317;27.658;85.326;2023-03-20T15:27:23;61.63;;;30.58;;
69203;SDS011;56317;27.658;85.326;2023-03-20T15:29:54;53.05;;;30.50;;
69203;SDS011;56317;27.658;85.326;2023-03-20T15:32:22;53.85;;;30.85;;
69203;SDS011;56317;27.658;85.326;2023-03-20T15:34:50;50.95;;;30.02;;
69203;SDS011;56317;27.658;85.326;2023-03-20T15:37:22;45.33;;;26.38;;
69203;SDS011;56317;27.658;85.326;2023-03-20T15:39:51;39.38;;;27.23;;
69203;SDS011;56317;27.658;85.326;2023-03-20T15:42:24;37.67;;;23.00;;
69203;SDS011;56317;27.658;85.326;2023-03-20T15:44:53;39.80;;;24.27;;
69203;SDS011;56317;27.658;85.326;2023-03-20T15:47:24;34.90;;;21.05;;
69203;SDS011;56317;27.658;85.326;2023-03-20T15:49:57;35.47;;;23.58;;
69203;SDS011;56317;27.658;85.326;2023-03-20T15:52:37;30.23;;;18.95;;
69203;SDS011;56317;27.658;85.326;2023-03-20T15:55:11;24.67;;;16.48;;
69203;SDS011;56317;27.658;85.326;2023-03-20T15:57:42;26.33;;;17.27;;
69203;SDS011;56317;27.658;85.326;2023-03-20T16:00:16;24.85;;;15.68;;
69203;SDS011;56317;27.658;85.326;2023-03-20T16:02:50;29.00;;;17.58;;
69203;SDS011;56317;27.658;85.326;2023-03-20T16:05:18;24.15;;;15.05;;
69203;SDS011;56317;27.658;85.326;2023-03-20T16:07:50;25.15;;;14.98;;
69203;SDS011;56317;27.658;85.326;2023-03-20T16:12:48;23.08;;;14.18;;
69203;SDS011;56317;27.658;85.326;2023-03-20T16:15:19;23.85;;;15.27;;
69203;SDS011;56317;27.658;85.326;2023-03-20T16:17:54;29.63;;;15.98;;
69203;SDS011;56317;27.658;85.326;2023-03-20T16:20:23;32.55;;;16.90;;
69203;SDS011;56317;27.658;85.326;2023-03-20T16:22:54;23.38;;;14.98;;
69203;SDS011;56317;27.658;85.326;2023-03-20T16:25:26;23.85;;;15.63;;
69203;SDS011;56317;27.658;85.326;2023-03-20T16:27:54;28.60;;;15.85;;
69203;SDS011;56317;27.658;85.326;2023-03-20T16:30:23;22.52;;;15.18;;
69203;SDS011;56317;27.658;85.326;2023-03-20T16:32:57;23.42;;;14.45;;
69203;SDS011;56317;27.658;85.326;2023-03-20T16:35:35;24.40;;;17.40;;
69203;SDS011;56317;27.658;85.326;2023-03-20T16:38:24;22.63;;;14.20;;
69203;SDS011;56317;27.658;85.326;2023-03-20T16:41:20;22.75;;;14.40;;
69203;SDS011;56317;27.658;85.326;2023-03-20T16:43:58;22.40;;;14.40;;
69203;SDS011;56317;27.658;85.326;2023-03-20T16:46:59;22.35;;;13.88;;
69203;SDS011;56317;27.658;85.326;2023-03-20T16:51:57;23.30;;;13.25;;
69203;SDS011;56317;27.658;85.326;2023-03-20T16:54:30;19.17;;;12.85;;
69203;SDS011;56317;27.658;85.326;2023-03-20T16:57:01;18.73;;;11.68;;
69203;SDS011;56317;27.658;85.326;2023-03-20T16:59:32;17.92;;;12.43;;
69203;SDS011;56317;27.658;85.326;2023-03-20T17:02:10;23.90;;;13.05;;
69203;SDS011;56317;27.658;85.326;2023-03-20T17:04:48;21.10;;;13.02;;
69203;SDS011;56317;27.658;85.326;2023-03-20T17:07:20;20.30;;;12.27;;
69203;SDS011;56317;27.658;85.326;2023-03-20T17:12:46;17.55;;;11.50;;
69203;SDS011;56317;27.658;85.326;2023-03-20T17:15:16;19.27;;;12.35;;
69203;SDS011;56317;27.658;85.326;2023-03-20T17:17:48;26.25;;;14.95;;
69203;SDS011;56317;27.658;85.326;2023-03-20T17:20:17;30.40;;;17.00;;
69203;SDS011;56317;27.658;85.326;2023-03-20T17:22:49;30.38;;;18.77;;
69203;SDS011;56317;27.658;85.326;2023-03-20T17:25:16;33.65;;;21.40;;
69203;SDS011;56317;27.658;85.326;2023-03-20T17:27:44;28.27;;;17.83;;
69203;SDS011;56317;27.658;85.326;2023-03-20T17:30:13;32.72;;;20.10;;